sensor_id;sensor_type;location;lat;lon;timestamp;P1;durP1;ratioP1;P2;durP2;ratioP2
72676;SDS011;60755;51.374;10.662;2022-07-06T00:01:51;3.23;;;2.67;;
72676;SDS011;60755;51.374;10.662;2022-07-06T00:04:18;3.30;;;2.10;;
72676;SDS011;60755;51.374;10.662;2022-07-06T00:06:44;2.40;;;2.20;;
72676;SDS011;60755;51.374;10.662;2022-07-06T00:09:11;3.30;;;2.17;;
72676;SDS011;60755;51.374;10.662;2022-07-06T00:11:37;2.37;;;2.20;;
72676;SDS011;60755;51.374;10.662;2022-07-06T00:14:05;4.73;;;2.60;;
72676;SDS011;60755;51.374;10.662;2022-07-06T00:16:32;2.97;;;2.60;;
72676;SDS011;60755;51.374;10.662;2022-07-06T00:18:58;2.83;;;2.20;;
72676;SDS011;60755;51.374;10.662;2022-07-06T00:21:25;2.03;;;2.03;;
72676;SDS011;60755;51.374;10.662;2022-07-06T00:23:51;6.95;;;2.50;;
72676;SDS011;60755;51.374;10.662;2022-07-06T00:26:18;3.37;;;2.40;;
72676;SDS011;60755;51.374;10.662;2022-07-06T00:28:44;2.67;;;2.47;;
72676;SDS011;60755;51.374;10.662;2022-07-06T00:31:12;5.23;;;2.40;;
72676;SDS011;60755;51.374;10.662;2022-07-06T00:33:39;3.23;;;2.40;;
72676;SDS011;60755;51.374;10.662;2022-07-06T00:36:05;2.23;;;2.13;;
72676;SDS011;60755;51.374;10.662;2022-07-06T00:38:31;2.40;;;2.03;;
72676;SDS011;60755;51.374;10.662;2022-07-06T00:40:58;5.20;;;2.20;;
72676;SDS011;60755;51.374;10.662;2022-07-06T00:43:24;2.40;;;2.20;;
72676;SDS011;60755;51.374;10.662;2022-07-06T00:45:51;4.13;;;2.27;;
72676;SDS011;60755;51.374;10.662;2022-07-06T00:48:18;5.17;;;2.17;;
72676;SDS011;60755;51.374;10.662;2022-07-06T00:50:45;3.13;;;2.50;;
72676;SDS011;60755;51.374;10.662;2022-07-06T00:53:11;7.00;;;2.23;;
72676;SDS011;60755;51.374;10.662;2022-07-06T00:55:39;4.70;;;2.27;;
72676;SDS011;60755;51.374;10.662;2022-07-06T00:58:06;2.60;;;2.50;;
72676;SDS011;60755;51.374;10.662;2022-07-06T01:00:33;4.70;;;2.40;;
72676;SDS011;60755;51.374;10.662;2022-07-06T01:03:00;4.80;;;2.40;;
72676;SDS011;60755;51.374;10.662;2022-07-06T01:05:29;2.47;;;2.37;;
72676;SDS011;60755;51.374;10.662;2022-07-06T01:07:55;2.30;;;2.20;;
72676;SDS011;60755;51.374;10.662;2022-07-06T01:10:22;2.37;;;2.27;;
72676;SDS011;60755;51.374;10.662;2022-07-06T01:12:49;2.90;;;2.70;;
72676;SDS011;60755;51.374;10.662;2022-07-06T01:15:16;3.20;;;2.40;;
72676;SDS011;60755;51.374;10.662;2022-07-06T01:17:44;3.63;;;2.40;;
72676;SDS011;60755;51.374;10.662;2022-07-06T01:20:14;3.20;;;2.90;;
72676;SDS011;60755;51.374;10.662;2022-07-06T01:22:41;5.20;;;2.73;;
72676;SDS011;60755;51.374;10.662;2022-07-06T01:25:08;2.90;;;2.70;;
72676;SDS011;60755;51.374;10.662;2022-07-06T01:27:35;2.80;;;2.60;;
72676;SDS011;60755;51.374;10.662;2022-07-06T01:30:03;2.73;;;2.70;;
72676;SDS011;60755;51.374;10.662;2022-07-06T01:32:32;3.10;;;2.63;;
72676;SDS011;60755;51.374;10.662;2022-07-06T01:34:59;2.77;;;2.60;;
72676;SDS011;60755;51.374;10.662;2022-07-06T01:37:27;4.43;;;2.60;;
72676;SDS011;60755;51.374;10.662;2022-07-06T01:39:53;3.00;;;2.70;;
72676;SDS011;60755;51.374;10.662;2022-07-06T01:42:24;2.63;;;2.50;;
72676;SDS011;60755;51.374;10.662;2022-07-06T01:44:50;7.00;;;2.93;;
72676;SDS011;60755;51.374;10.662;2022-07-06T01:47:17;2.90;;;2.70;;
72676;SDS011;60755;51.374;10.662;2022-07-06T01:49:43;4.33;;;2.77;;
72676;SDS011;60755;51.374;10.662;2022-07-06T01:52:09;3.13;;;2.80;;
72676;SDS011;60755;51.374;10.662;2022-07-06T01:54:37;3.10;;;2.90;;
72676;SDS011;60755;51.374;10.662;2022-07-06T01:57:04;5.07;;;3.00;;
72676;SDS011;60755;51.374;10.662;2022-07-06T01:59:30;4.37;;;2.90;;
72676;SDS011;60755;51.374;10.662;2022-07-06T02:01:57;3.70;;;3.40;;
72676;SDS011;60755;51.374;10.662;2022-07-06T02:04:24;5.17;;;2.87;;
72676;SDS011;60755;51.374;10.662;2022-07-06T02:06:50;3.40;;;3.03;;
72676;SDS011;60755;51.374;10.662;2022-07-06T02:09:16;3.67;;;2.83;;
72676;SDS011;60755;51.374;10.662;2022-07-06T02:11:44;3.30;;;3.00;;
72676;SDS011;60755;51.374;10.662;2022-07-06T02:14:11;3.17;;;2.97;;
72676;SDS011;60755;51.374;10.662;2022-07-06T02:16:37;3.10;;;2.73;;
72676;SDS011;60755;51.374;10.662;2022-07-06T02:19:03;4.50;;;3.00;;
72676;SDS011;60755;51.374;10.662;2022-07-06T02:21:30;3.47;;;3.17;;
72676;SDS011;60755;51.374;10.662;2022-07-06T02:23:56;4.47;;;3.13;;
72676;SDS011;60755;51.374;10.662;2022-07-06T02:26:22;5.07;;;3.37;;
72676;SDS011;60755;51.374;10.662;2022-07-06T02:28:50;4.50;;;3.47;;
72676;SDS011;60755;51.374;10.662;2022-07-06T02:31:17;6.50;;;3.80;;
72676;SDS011;60755;51.374;10.662;2022-07-06T02:33:43;5.97;;;3.43;;
72676;SDS011;60755;51.374;10.662;2022-07-06T02:36:10;5.00;;;3.10;;
72676;SDS011;60755;51.374;10.662;2022-07-06T02:38:36;4.60;;;3.30;;
72676;SDS011;60755;51.374;10.662;2022-07-06T02:41:02;3.90;;;2.90;;
72676;SDS011;60755;51.374;10.662;2022-07-06T02:43:29;2.97;;;2.80;;
72676;SDS011;60755;51.374;10.662;2022-07-06T02:45:57;3.20;;;2.90;;
72676;SDS011;60755;51.374;10.662;2022-07-06T02:48:23;3.20;;;3.00;;
72676;SDS011;60755;51.374;10.662;2022-07-06T02:50:50;4.10;;;2.97;;
72676;SDS011;60755;51.374;10.662;2022-07-06T02:53:17;3.00;;;2.90;;
72676;SDS011;60755;51.374;10.662;2022-07-06T02:55:43;6.63;;;3.00;;
72676;SDS011;60755;51.374;10.662;2022-07-06T02:58:10;3.50;;;3.07;;
72676;SDS011;60755;51.374;10.662;2022-07-06T03:00:36;3.60;;;3.30;;
72676;SDS011;60755;51.374;10.662;2022-07-06T03:03:04;3.20;;;2.87;;
72676;SDS011;60755;51.374;10.662;2022-07-06T03:05:30;2.93;;;2.83;;
72676;SDS011;60755;51.374;10.662;2022-07-06T03:07:56;3.30;;;2.97;;
72676;SDS011;60755;51.374;10.662;2022-07-06T03:10:23;4.60;;;3.00;;
72676;SDS011;60755;51.374;10.662;2022-07-06T03:12:49;3.40;;;3.10;;
72676;SDS011;60755;51.374;10.662;2022-07-06T03:15:16;2.80;;;2.60;;
72676;SDS011;60755;51.374;10.662;2022-07-06T03:17:42;3.30;;;3.00;;
72676;SDS011;60755;51.374;10.662;2022-07-06T03:20:10;3.13;;;2.93;;
72676;SDS011;60755;51.374;10.662;2022-07-06T03:22:37;6.53;;;3.33;;
72676;SDS011;60755;51.374;10.662;2022-07-06T03:25:04;8.83;;;3.40;;
72676;SDS011;60755;51.374;10.662;2022-07-06T03:27:31;4.67;;;3.20;;
72676;SDS011;60755;51.374;10.662;2022-07-06T03:29:58;3.93;;;3.00;;
72676;SDS011;60755;51.374;10.662;2022-07-06T03:32:25;4.73;;;3.67;;
72676;SDS011;60755;51.374;10.662;2022-07-06T03:34:52;3.67;;;3.37;;
72676;SDS011;60755;51.374;10.662;2022-07-06T03:37:19;4.30;;;3.00;;
72676;SDS011;60755;51.374;10.662;2022-07-06T03:39:46;5.47;;;3.23;;
72676;SDS011;60755;51.374;10.662;2022-07-06T03:42:12;3.27;;;2.90;;
72676;SDS011;60755;51.374;10.662;2022-07-06T03:44:38;19.57;;;8.60;;
72676;SDS011;60755;51.374;10.662;2022-07-06T03:47:05;31.87;;;16.00;;
72676;SDS011;60755;51.374;10.662;2022-07-06T03:49:32;11.45;;;7.90;;
72676;SDS011;60755;51.374;10.662;2022-07-06T03:51:58;3.92;;;3.65;;
72676;SDS011;60755;51.374;10.662;2022-07-06T03:54:26;3.28;;;2.90;;
72676;SDS011;60755;51.374;10.662;2022-07-06T03:56:52;3.90;;;2.53;;
72676;SDS011;60755;51.374;10.662;2022-07-06T03:59:18;4.28;;;3.60;;
72676;SDS011;60755;51.374;10.662;2022-07-06T04:01:45;11.27;;;9.10;;
72676;SDS011;60755;51.374;10.662;2022-07-06T04:04:11;5.55;;;4.22;;
72676;SDS011;60755;51.374;10.662;2022-07-06T04:06:37;4.40;;;2.78;;
72676;SDS011;60755;51.374;10.662;2022-07-06T04:09:04;3.20;;;2.47;;
72676;SDS011;60755;51.374;10.662;2022-07-06T04:11:32;2.30;;;2.20;;
72676;SDS011;60755;51.374;10.662;2022-07-06T04:13:58;1.75;;;1.67;;
72676;SDS011;60755;51.374;10.662;2022-07-06T04:16:25;4.30;;;2.00;;
72676;SDS011;60755;51.374;10.662;2022-07-06T04:18:51;2.35;;;2.00;;
72676;SDS011;60755;51.374;10.662;2022-07-06T04:21:17;2.20;;;2.05;;
72676;SDS011;60755;51.374;10.662;2022-07-06T04:23:46;2.03;;;1.92;;
72676;SDS011;60755;51.374;10.662;2022-07-06T04:26:12;4.43;;;2.03;;
72676;SDS011;60755;51.374;10.662;2022-07-06T04:28:40;2.83;;;2.05;;
72676;SDS011;60755;51.374;10.662;2022-07-06T04:31:06;2.85;;;2.13;;
72676;SDS011;60755;51.374;10.662;2022-07-06T04:33:33;2.72;;;2.20;;
72676;SDS011;60755;51.374;10.662;2022-07-06T04:36:00;3.20;;;1.80;;
72676;SDS011;60755;51.374;10.662;2022-07-06T04:38:26;7.88;;;2.92;;
72676;SDS011;60755;51.374;10.662;2022-07-06T04:40:53;2.00;;;1.90;;
72676;SDS011;60755;51.374;10.662;2022-07-06T04:43:19;5.63;;;2.33;;
72676;SDS011;60755;51.374;10.662;2022-07-06T04:45:47;2.53;;;2.10;;
72676;SDS011;60755;51.374;10.662;2022-07-06T04:48:13;3.95;;;2.10;;
72676;SDS011;60755;51.374;10.662;2022-07-06T04:50:39;2.10;;;1.95;;
72676;SDS011;60755;51.374;10.662;2022-07-06T04:53:06;4.78;;;2.08;;
72676;SDS011;60755;51.374;10.662;2022-07-06T04:55:33;5.43;;;2.10;;
72676;SDS011;60755;51.374;10.662;2022-07-06T04:57:59;3.13;;;2.00;;
72676;SDS011;60755;51.374;10.662;2022-07-06T05:00:28;4.38;;;1.88;;
72676;SDS011;60755;51.374;10.662;2022-07-06T05:02:56;3.83;;;1.70;;
72676;SDS011;60755;51.374;10.662;2022-07-06T05:05:23;3.95;;;1.77;;
72676;SDS011;60755;51.374;10.662;2022-07-06T05:07:49;2.00;;;1.77;;
72676;SDS011;60755;51.374;10.662;2022-07-06T05:10:16;2.45;;;1.52;;
72676;SDS011;60755;51.374;10.662;2022-07-06T05:12:43;3.30;;;1.73;;
72676;SDS011;60755;51.374;10.662;2022-07-06T05:15:10;2.92;;;1.75;;
72676;SDS011;60755;51.374;10.662;2022-07-06T05:17:37;1.88;;;1.60;;
72676;SDS011;60755;51.374;10.662;2022-07-06T05:20:07;1.92;;;1.58;;
72676;SDS011;60755;51.374;10.662;2022-07-06T05:22:34;5.55;;;1.77;;
72676;SDS011;60755;51.374;10.662;2022-07-06T05:25:00;1.92;;;1.50;;
72676;SDS011;60755;51.374;10.662;2022-07-06T05:27:27;2.28;;;1.58;;
72676;SDS011;60755;51.374;10.662;2022-07-06T05:29:53;2.28;;;1.70;;
72676;SDS011;60755;51.374;10.662;2022-07-06T05:32:22;8.68;;;1.80;;
72676;SDS011;60755;51.374;10.662;2022-07-06T05:34:49;2.83;;;1.45;;
72676;SDS011;60755;51.374;10.662;2022-07-06T05:37:17;4.70;;;1.65;;
72676;SDS011;60755;51.374;10.662;2022-07-06T05:39:44;6.47;;;1.75;;
72676;SDS011;60755;51.374;10.662;2022-07-06T05:42:14;2.53;;;1.48;;
72676;SDS011;60755;51.374;10.662;2022-07-06T05:44:42;5.90;;;1.70;;
72676;SDS011;60755;51.374;10.662;2022-07-06T05:47:09;1.35;;;1.35;;
72676;SDS011;60755;51.374;10.662;2022-07-06T05:49:53;1.80;;;1.70;;
72676;SDS011;60755;51.374;10.662;2022-07-06T05:52:40;2.95;;;1.65;;
72676;SDS011;60755;51.374;10.662;2022-07-06T05:55:07;2.22;;;1.73;;
72676;SDS011;60755;51.374;10.662;2022-07-06T05:57:35;3.60;;;1.70;;
72676;SDS011;60755;51.374;10.662;2022-07-06T06:00:02;3.38;;;1.45;;
72676;SDS011;60755;51.374;10.662;2022-07-06T06:02:36;1.67;;;1.52;;
72676;SDS011;60755;51.374;10.662;2022-07-06T06:05:03;1.92;;;1.55;;
72676;SDS011;60755;51.374;10.662;2022-07-06T06:07:32;3.80;;;1.70;;
72676;SDS011;60755;51.374;10.662;2022-07-06T06:10:00;1.58;;;1.48;;
72676;SDS011;60755;51.374;10.662;2022-07-06T06:12:27;2.08;;;1.60;;
72676;SDS011;60755;51.374;10.662;2022-07-06T06:14:53;2.08;;;1.77;;
72676;SDS011;60755;51.374;10.662;2022-07-06T06:17:20;2.55;;;1.52;;
72676;SDS011;60755;51.374;10.662;2022-07-06T06:19:46;1.92;;;1.67;;
72676;SDS011;60755;51.374;10.662;2022-07-06T06:22:13;2.83;;;1.48;;
72676;SDS011;60755;51.374;10.662;2022-07-06T06:24:39;1.70;;;1.58;;
72676;SDS011;60755;51.374;10.662;2022-07-06T06:27:07;2.45;;;1.88;;
72676;SDS011;60755;51.374;10.662;2022-07-06T06:29:33;4.00;;;1.67;;
72676;SDS011;60755;51.374;10.662;2022-07-06T06:32:00;3.60;;;1.55;;
72676;SDS011;60755;51.374;10.662;2022-07-06T06:34:26;1.95;;;1.80;;
72676;SDS011;60755;51.374;10.662;2022-07-06T06:36:52;1.67;;;1.58;;
72676;SDS011;60755;51.374;10.662;2022-07-06T06:39:19;2.08;;;1.67;;
72676;SDS011;60755;51.374;10.662;2022-07-06T06:41:45;1.65;;;1.40;;
72676;SDS011;60755;51.374;10.662;2022-07-06T06:44:13;2.53;;;1.70;;
72676;SDS011;60755;51.374;10.662;2022-07-06T06:46:39;1.90;;;1.80;;
72676;SDS011;60755;51.374;10.662;2022-07-06T06:49:06;3.10;;;1.90;;
72676;SDS011;60755;51.374;10.662;2022-07-06T06:51:33;3.42;;;2.28;;
72676;SDS011;60755;51.374;10.662;2022-07-06T06:53:59;1.85;;;1.75;;
72676;SDS011;60755;51.374;10.662;2022-07-06T06:56:26;1.85;;;1.75;;
72676;SDS011;60755;51.374;10.662;2022-07-06T06:58:52;3.55;;;2.00;;
72676;SDS011;60755;51.374;10.662;2022-07-06T07:01:20;1.70;;;1.60;;
72676;SDS011;60755;51.374;10.662;2022-07-06T07:03:46;3.22;;;1.90;;
72676;SDS011;60755;51.374;10.662;2022-07-06T07:06:14;1.80;;;1.70;;
72676;SDS011;60755;51.374;10.662;2022-07-06T07:08:42;2.90;;;2.10;;
72676;SDS011;60755;51.374;10.662;2022-07-06T07:11:08;3.28;;;2.00;;
72676;SDS011;60755;51.374;10.662;2022-07-06T07:13:35;3.10;;;2.00;;
72676;SDS011;60755;51.374;10.662;2022-07-06T07:16:01;5.75;;;1.80;;
72676;SDS011;60755;51.374;10.662;2022-07-06T07:18:29;2.55;;;2.00;;
72676;SDS011;60755;51.374;10.662;2022-07-06T07:20:56;6.68;;;2.90;;
72676;SDS011;60755;51.374;10.662;2022-07-06T07:23:23;2.33;;;2.03;;
72676;SDS011;60755;51.374;10.662;2022-07-06T07:25:49;4.63;;;2.35;;
72676;SDS011;60755;51.374;10.662;2022-07-06T07:28:16;2.03;;;1.92;;
72676;SDS011;60755;51.374;10.662;2022-07-06T07:30:42;3.15;;;1.83;;
72676;SDS011;60755;51.374;10.662;2022-07-06T07:33:08;5.07;;;2.13;;
72676;SDS011;60755;51.374;10.662;2022-07-06T07:35:36;3.22;;;1.80;;
72676;SDS011;60755;51.374;10.662;2022-07-06T07:38:03;3.85;;;2.17;;
72676;SDS011;60755;51.374;10.662;2022-07-06T07:40:29;1.92;;;1.80;;
72676;SDS011;60755;51.374;10.662;2022-07-06T07:42:55;3.90;;;1.75;;
72676;SDS011;60755;51.374;10.662;2022-07-06T07:45:22;2.72;;;2.10;;
72676;SDS011;60755;51.374;10.662;2022-07-06T07:47:48;3.25;;;1.85;;
72676;SDS011;60755;51.374;10.662;2022-07-06T07:50:14;2.00;;;1.90;;
72676;SDS011;60755;51.374;10.662;2022-07-06T07:52:42;5.30;;;2.28;;
72676;SDS011;60755;51.374;10.662;2022-07-06T07:55:09;3.10;;;1.90;;
72676;SDS011;60755;51.374;10.662;2022-07-06T07:57:35;2.10;;;1.90;;
72676;SDS011;60755;51.374;10.662;2022-07-06T08:00:03;3.90;;;1.55;;
72676;SDS011;60755;51.374;10.662;2022-07-06T08:02:30;2.28;;;2.15;;
72676;SDS011;60755;51.374;10.662;2022-07-06T08:04:56;3.67;;;2.08;;
72676;SDS011;60755;51.374;10.662;2022-07-06T08:07:23;3.75;;;1.77;;
72676;SDS011;60755;51.374;10.662;2022-07-06T08:09:51;2.97;;;1.77;;
72676;SDS011;60755;51.374;10.662;2022-07-06T08:12:17;2.83;;;1.70;;
72676;SDS011;60755;51.374;10.662;2022-07-06T08:14:44;2.35;;;1.90;;
72676;SDS011;60755;51.374;10.662;2022-07-06T08:17:10;2.15;;;2.03;;
72676;SDS011;60755;51.374;10.662;2022-07-06T08:19:36;3.80;;;2.28;;
72676;SDS011;60755;51.374;10.662;2022-07-06T08:22:03;3.72;;;2.20;;
72676;SDS011;60755;51.374;10.662;2022-07-06T08:24:32;3.17;;;1.90;;
72676;SDS011;60755;51.374;10.662;2022-07-06T08:27:00;3.08;;;2.10;;
72676;SDS011;60755;51.374;10.662;2022-07-06T08:29:27;3.35;;;1.95;;
72676;SDS011;60755;51.374;10.662;2022-07-06T08:31:53;2.80;;;1.70;;
72676;SDS011;60755;51.374;10.662;2022-07-06T08:34:19;2.85;;;1.88;;
72676;SDS011;60755;51.374;10.662;2022-07-06T08:36:46;2.40;;;2.20;;
72676;SDS011;60755;51.374;10.662;2022-07-06T08:39:12;7.50;;;2.40;;
72676;SDS011;60755;51.374;10.662;2022-07-06T08:41:40;1.90;;;1.80;;
72676;SDS011;60755;51.374;10.662;2022-07-06T08:44:09;8.52;;;1.98;;
72676;SDS011;60755;51.374;10.662;2022-07-06T08:46:37;3.15;;;1.58;;
72676;SDS011;60755;51.374;10.662;2022-07-06T08:49:04;2.53;;;1.85;;
72676;SDS011;60755;51.374;10.662;2022-07-06T08:51:34;2.83;;;1.70;;
72676;SDS011;60755;51.374;10.662;2022-07-06T08:54:01;2.08;;;1.98;;
72676;SDS011;60755;51.374;10.662;2022-07-06T08:56:29;3.45;;;1.65;;
72676;SDS011;60755;51.374;10.662;2022-07-06T08:58:56;2.70;;;1.88;;
72676;SDS011;60755;51.374;10.662;2022-07-06T09:01:24;6.07;;;2.10;;
72676;SDS011;60755;51.374;10.662;2022-07-06T09:03:52;2.00;;;1.90;;
72676;SDS011;60755;51.374;10.662;2022-07-06T09:06:22;7.03;;;3.97;;
72676;SDS011;60755;51.374;10.662;2022-07-06T09:08:51;1.90;;;1.80;;
72676;SDS011;60755;51.374;10.662;2022-07-06T09:11:19;3.50;;;1.80;;
72676;SDS011;60755;51.374;10.662;2022-07-06T09:13:47;1.70;;;1.60;;
72676;SDS011;60755;51.374;10.662;2022-07-06T09:16:15;2.50;;;2.13;;
72676;SDS011;60755;51.374;10.662;2022-07-06T09:18:44;1.98;;;1.65;;
72676;SDS011;60755;51.374;10.662;2022-07-06T09:21:11;2.00;;;1.90;;
72676;SDS011;60755;51.374;10.662;2022-07-06T09:23:52;1.80;;;1.80;;
72676;SDS011;60755;51.374;10.662;2022-07-06T09:26:19;3.25;;;1.85;;
72676;SDS011;60755;51.374;10.662;2022-07-06T09:28:45;1.73;;;1.67;;
72676;SDS011;60755;51.374;10.662;2022-07-06T09:31:12;1.85;;;1.85;;
72676;SDS011;60755;51.374;10.662;2022-07-06T09:33:38;2.10;;;1.70;;
72676;SDS011;60755;51.374;10.662;2022-07-06T09:36:22;1.70;;;1.60;;
72676;SDS011;60755;51.374;10.662;2022-07-06T09:39:14;3.47;;;1.90;;
72676;SDS011;60755;51.374;10.662;2022-07-06T09:41:41;2.60;;;1.83;;
72676;SDS011;60755;51.374;10.662;2022-07-06T09:44:08;2.05;;;1.63;;
72676;SDS011;60755;51.374;10.662;2022-07-06T09:46:37;2.40;;;1.60;;
72676;SDS011;60755;51.374;10.662;2022-07-06T09:49:06;3.90;;;1.73;;
72676;SDS011;60755;51.374;10.662;2022-07-06T09:51:36;3.45;;;3.15;;
72676;SDS011;60755;51.374;10.662;2022-07-06T09:54:06;4.63;;;2.97;;
72676;SDS011;60755;51.374;10.662;2022-07-06T09:56:36;2.80;;;2.08;;
72676;SDS011;60755;51.374;10.662;2022-07-06T09:59:05;2.72;;;2.45;;
72676;SDS011;60755;51.374;10.662;2022-07-06T10:01:33;6.68;;;2.60;;
72676;SDS011;60755;51.374;10.662;2022-07-06T10:04:00;2.45;;;2.25;;
72676;SDS011;60755;51.374;10.662;2022-07-06T10:06:27;5.95;;;3.15;;
72676;SDS011;60755;51.374;10.662;2022-07-06T10:08:54;1.80;;;1.70;;
72676;SDS011;60755;51.374;10.662;2022-07-06T10:11:23;3.13;;;2.33;;
72676;SDS011;60755;51.374;10.662;2022-07-06T10:13:50;4.88;;;2.20;;
72676;SDS011;60755;51.374;10.662;2022-07-06T10:16:21;1.83;;;1.70;;
72676;SDS011;60755;51.374;10.662;2022-07-06T10:18:48;2.88;;;2.00;;
72676;SDS011;60755;51.374;10.662;2022-07-06T10:21:18;2.22;;;1.50;;
72676;SDS011;60755;51.374;10.662;2022-07-06T10:23:45;2.15;;;1.70;;
72676;SDS011;60755;51.374;10.662;2022-07-06T10:26:13;7.10;;;3.40;;
72676;SDS011;60755;51.374;10.662;2022-07-06T10:28:41;2.38;;;2.22;;
72676;SDS011;60755;51.374;10.662;2022-07-06T10:31:08;2.80;;;1.92;;
72676;SDS011;60755;51.374;10.662;2022-07-06T10:33:35;3.45;;;2.00;;
72676;SDS011;60755;51.374;10.662;2022-07-06T10:36:03;3.30;;;3.10;;
72676;SDS011;60755;51.374;10.662;2022-07-06T10:38:30;2.95;;;1.70;;
72676;SDS011;60755;51.374;10.662;2022-07-06T10:41:01;2.45;;;1.55;;
72676;SDS011;60755;51.374;10.662;2022-07-06T10:43:35;1.35;;;1.27;;
72676;SDS011;60755;51.374;10.662;2022-07-06T10:46:06;3.67;;;1.60;;
72676;SDS011;60755;51.374;10.662;2022-07-06T10:48:35;1.70;;;1.60;;
72676;SDS011;60755;51.374;10.662;2022-07-06T10:51:02;1.30;;;1.20;;
72676;SDS011;60755;51.374;10.662;2022-07-06T10:53:30;5.25;;;1.50;;
72676;SDS011;60755;51.374;10.662;2022-07-06T10:55:59;1.27;;;1.15;;
72676;SDS011;60755;51.374;10.662;2022-07-06T10:58:36;1.70;;;1.60;;
72676;SDS011;60755;51.374;10.662;2022-07-06T11:01:05;1.60;;;1.50;;
72676;SDS011;60755;51.374;10.662;2022-07-06T11:03:41;1.58;;;1.38;;
72676;SDS011;60755;51.374;10.662;2022-07-06T11:06:10;6.00;;;1.83;;
72676;SDS011;60755;51.374;10.662;2022-07-06T11:08:42;2.25;;;1.58;;
72676;SDS011;60755;51.374;10.662;2022-07-06T11:11:16;3.53;;;1.50;;
72676;SDS011;60755;51.374;10.662;2022-07-06T11:13:49;2.33;;;1.67;;
72676;SDS011;60755;51.374;10.662;2022-07-06T11:16:18;1.83;;;1.48;;
72676;SDS011;60755;51.374;10.662;2022-07-06T11:18:49;1.55;;;1.45;;
72676;SDS011;60755;51.374;10.662;2022-07-06T11:21:32;1.67;;;1.58;;
72676;SDS011;60755;51.374;10.662;2022-07-06T11:24:01;1.70;;;1.60;;
72676;SDS011;60755;51.374;10.662;2022-07-06T11:26:27;1.77;;;1.40;;
72676;SDS011;60755;51.374;10.662;2022-07-06T11:28:55;1.83;;;1.67;;
72676;SDS011;60755;51.374;10.662;2022-07-06T11:31:24;2.15;;;1.30;;
72676;SDS011;60755;51.374;10.662;2022-07-06T11:33:51;1.35;;;1.25;;
72676;SDS011;60755;51.374;10.662;2022-07-06T11:36:18;1.95;;;1.52;;
72676;SDS011;60755;51.374;10.662;2022-07-06T11:38:46;2.80;;;1.40;;
72676;SDS011;60755;51.374;10.662;2022-07-06T11:41:13;4.38;;;1.50;;
72676;SDS011;60755;51.374;10.662;2022-07-06T11:43:41;3.65;;;1.75;;
72676;SDS011;60755;51.374;10.662;2022-07-06T11:46:25;3.55;;;1.50;;
72676;SDS011;60755;51.374;10.662;2022-07-06T11:48:53;2.83;;;1.50;;
72676;SDS011;60755;51.374;10.662;2022-07-06T11:51:22;1.60;;;1.50;;
72676;SDS011;60755;51.374;10.662;2022-07-06T11:53:50;1.20;;;1.20;;
72676;SDS011;60755;51.374;10.662;2022-07-06T11:56:17;3.92;;;1.48;;
72676;SDS011;60755;51.374;10.662;2022-07-06T11:58:46;1.48;;;1.30;;
72676;SDS011;60755;51.374;10.662;2022-07-06T12:01:15;2.63;;;1.50;;
72676;SDS011;60755;51.374;10.662;2022-07-06T12:03:43;1.30;;;1.30;;
72676;SDS011;60755;51.374;10.662;2022-07-06T12:06:14;1.23;;;1.13;;
72676;SDS011;60755;51.374;10.662;2022-07-06T12:08:50;1.45;;;1.40;;
72676;SDS011;60755;51.374;10.662;2022-07-06T12:11:21;1.70;;;1.20;;
72676;SDS011;60755;51.374;10.662;2022-07-06T12:13:49;1.67;;;1.45;;
72676;SDS011;60755;51.374;10.662;2022-07-06T12:16:16;2.05;;;1.35;;
72676;SDS011;60755;51.374;10.662;2022-07-06T12:18:44;1.20;;;1.20;;
72676;SDS011;60755;51.374;10.662;2022-07-06T12:21:13;5.82;;;1.45;;
72676;SDS011;60755;51.374;10.662;2022-07-06T12:23:42;1.30;;;1.20;;
72676;SDS011;60755;51.374;10.662;2022-07-06T12:26:10;2.00;;;1.10;;
72676;SDS011;60755;51.374;10.662;2022-07-06T12:28:37;2.90;;;1.83;;
72676;SDS011;60755;51.374;10.662;2022-07-06T12:31:03;6.93;;;1.77;;
72676;SDS011;60755;51.374;10.662;2022-07-06T12:33:30;3.33;;;1.40;;
72676;SDS011;60755;51.374;10.662;2022-07-06T12:35:58;2.75;;;1.30;;
72676;SDS011;60755;51.374;10.662;2022-07-06T12:38:35;1.50;;;1.30;;
72676;SDS011;60755;51.374;10.662;2022-07-06T12:41:01;2.55;;;1.20;;
72676;SDS011;60755;51.374;10.662;2022-07-06T12:43:35;3.10;;;1.60;;
72676;SDS011;60755;51.374;10.662;2022-07-06T12:48:52;1.85;;;1.20;;
72676;SDS011;60755;51.374;10.662;2022-07-06T12:51:21;3.25;;;1.83;;
72676;SDS011;60755;51.374;10.662;2022-07-06T12:53:48;1.10;;;1.08;;
72676;SDS011;60755;51.374;10.662;2022-07-06T12:56:15;6.07;;;1.23;;
72676;SDS011;60755;51.374;10.662;2022-07-06T12:58:58;5.72;;;1.20;;
72676;SDS011;60755;51.374;10.662;2022-07-06T13:01:25;1.10;;;1.10;;
72676;SDS011;60755;51.374;10.662;2022-07-06T13:03:56;1.35;;;1.30;;
72676;SDS011;60755;51.374;10.662;2022-07-06T13:06:28;3.40;;;1.30;;
72676;SDS011;60755;51.374;10.662;2022-07-06T13:08:55;1.13;;;1.10;;
72676;SDS011;60755;51.374;10.662;2022-07-06T13:11:22;6.82;;;1.65;;
72676;SDS011;60755;51.374;10.662;2022-07-06T13:13:48;1.20;;;1.20;;
72676;SDS011;60755;51.374;10.662;2022-07-06T13:16:15;1.38;;;1.27;;
72676;SDS011;60755;51.374;10.662;2022-07-06T13:18:42;3.20;;;1.20;;
72676;SDS011;60755;51.374;10.662;2022-07-06T13:21:08;1.48;;;1.10;;
72676;SDS011;60755;51.374;10.662;2022-07-06T13:23:37;1.48;;;1.10;;
72676;SDS011;60755;51.374;10.662;2022-07-06T13:26:04;1.05;;;1.05;;
72676;SDS011;60755;51.374;10.662;2022-07-06T13:28:30;1.20;;;1.10;;
72676;SDS011;60755;51.374;10.662;2022-07-06T13:30:57;2.40;;;1.15;;
72676;SDS011;60755;51.374;10.662;2022-07-06T13:33:23;2.88;;;1.25;;
72676;SDS011;60755;51.374;10.662;2022-07-06T13:35:50;1.35;;;0.90;;
72676;SDS011;60755;51.374;10.662;2022-07-06T13:38:17;1.73;;;1.13;;
72676;SDS011;60755;51.374;10.662;2022-07-06T13:40:44;1.10;;;1.10;;
72676;SDS011;60755;51.374;10.662;2022-07-06T13:43:11;1.13;;;1.13;;
72676;SDS011;60755;51.374;10.662;2022-07-06T13:45:37;4.13;;;1.40;;
72676;SDS011;60755;51.374;10.662;2022-07-06T13:48:04;3.17;;;0.93;;
72676;SDS011;60755;51.374;10.662;2022-07-06T13:50:31;2.47;;;1.15;;
72676;SDS011;60755;51.374;10.662;2022-07-06T13:52:57;1.30;;;1.20;;
72676;SDS011;60755;51.374;10.662;2022-07-06T13:55:23;2.67;;;1.13;;
72676;SDS011;60755;51.374;10.662;2022-07-06T13:57:52;5.40;;;3.28;;
72676;SDS011;60755;51.374;10.662;2022-07-06T14:00:18;2.15;;;1.90;;
72676;SDS011;60755;51.374;10.662;2022-07-06T14:02:45;6.82;;;2.17;;
72676;SDS011;60755;51.374;10.662;2022-07-06T14:05:11;1.10;;;1.00;;
72676;SDS011;60755;51.374;10.662;2022-07-06T14:07:38;3.58;;;1.73;;
72676;SDS011;60755;51.374;10.662;2022-07-06T14:10:04;5.05;;;1.00;;
72676;SDS011;60755;51.374;10.662;2022-07-06T14:12:31;3.13;;;1.13;;
72676;SDS011;60755;51.374;10.662;2022-07-06T14:14:59;2.63;;;1.05;;
72676;SDS011;60755;51.374;10.662;2022-07-06T14:17:26;2.75;;;1.65;;
72676;SDS011;60755;51.374;10.662;2022-07-06T14:19:52;5.10;;;1.05;;
72676;SDS011;60755;51.374;10.662;2022-07-06T14:22:18;1.33;;;1.15;;
72676;SDS011;60755;51.374;10.662;2022-07-06T14:24:45;2.05;;;1.00;;
72676;SDS011;60755;51.374;10.662;2022-07-06T14:27:11;5.15;;;1.38;;
72676;SDS011;60755;51.374;10.662;2022-07-06T14:29:37;2.95;;;0.90;;
72676;SDS011;60755;51.374;10.662;2022-07-06T14:32:05;2.63;;;0.90;;
72676;SDS011;60755;51.374;10.662;2022-07-06T14:34:32;3.35;;;1.25;;
72676;SDS011;60755;51.374;10.662;2022-07-06T14:36:58;2.35;;;1.17;;
72676;SDS011;60755;51.374;10.662;2022-07-06T14:39:25;2.42;;;1.25;;